Time;durP1;ratioP1;P1;durP2;ratioP2;P2;SDS_P1;SDS_P2;PMS_P1;PMS_P2;Temp;Humidity;BMP_temperature;BMP_pressure;BME280_temperature;BME280_humidity;BME280_pressure;Samples;Min_cycle;Max_cycle;Signal;HPM_P1;HPM_P2
2020/12/05 00:01:21;;;;;;;30.15;14.57;;;-2.60;87.90;;;;;;5038203;28;20070;-90
2020/12/05 00:03:46;;;;;;;25.25;15.95;;;-2.60;88.10;;;;;;5036755;28;20038;-87
2020/12/05 00:06:12;;;;;;;30.05;14.45;;;-2.50;88.20;;;;;;5043881;28;20022;-83
2020/12/05 00:08:38;;;;;;;19.23;10.25;;;-2.50;87.80;;;;;;5031785;28;20049;-86
2020/12/05 00:11:04;;;;;;;23.05;12.25;;;-2.50;87.30;;;;;;5020566;28;20495;-86
2020/12/05 00:13:30;;;;;;;27.02;15.10;;;-2.50;87.10;;;;;;5026297;28;20550;-85
2020/12/05 00:15:56;;;;;;;34.67;13.88;;;-2.60;87.30;;;;;;5035016;28;20108;-86
2020/12/05 00:18:22;;;;;;;30.00;14.48;;;-2.60;87.30;;;;;;5017092;28;20049;-84
2020/12/05 00:20:47;;;;;;;25.80;12.40;;;-2.70;87.30;;;;;;5036504;28;20084;-85
2020/12/05 00:23:13;;;;;;;31.42;16.60;;;-2.70;87.50;;;;;;5037947;28;20041;-85
2020/12/05 00:25:40;;;;;;;29.38;15.05;;;-2.80;87.80;;;;;;5046073;28;20033;-83
2020/12/05 00:28:06;;;;;;;19.27;10.70;;;-2.80;88.00;;;;;;5033198;28;20029;-85
2020/12/05 00:30:33;;;;;;;29.17;15.75;;;-2.70;88.00;;;;;;5032875;28;20045;-85
2020/12/05 00:33:00;;;;;;;27.38;14.07;;;-2.80;88.70;;;;;;5032954;28;20021;-84
2020/12/05 00:35:27;;;;;;;30.60;13.23;;;-2.70;88.20;;;;;;5038814;28;20078;-87
2020/12/05 00:37:54;;;;;;;33.47;14.38;;;-2.60;88.00;;;;;;5056834;28;20035;-85
2020/12/05 00:40:20;;;;;;;28.33;14.52;;;-2.60;87.90;;;;;;5074103;28;20016;-88
2020/12/05 00:42:46;;;;;;;22.83;12.37;;;-2.60;87.90;;;;;;5074326;28;20064;-86
2020/12/05 00:45:12;;;;;;;26.08;15.32;;;-2.70;87.70;;;;;;5056696;28;20028;-86
2020/12/05 00:47:38;;;;;;;18.98;11.95;;;-2.70;87.70;;;;;;5074319;28;20032;-86
2020/12/05 00:50:04;;;;;;;25.98;12.95;;;-2.70;87.80;;;;;;5074696;28;20024;-85
2020/12/05 00:52:30;;;;;;;29.80;14.43;;;-2.80;87.80;;;;;;5075387;28;20094;-85
2020/12/05 00:54:56;;;;;;;21.27;13.88;;;-2.90;88.00;;;;;;5088356;28;20004;-85
2020/12/05 00:57:22;;;;;;;30.92;16.15;;;-2.90;88.20;;;;;;5077278;28;20078;-86
2020/12/05 00:59:48;;;;;;;25.63;15.57;;;-2.90;88.40;;;;;;5073190;28;20108;-86
2020/12/05 01:02:13;;;;;;;22.40;14.63;;;-2.80;88.50;;;;;;5056208;28;20066;-85
2020/12/05 01:04:39;;;;;;;21.83;12.23;;;-2.80;88.40;;;;;;5075758;28;20032;-87
2020/12/05 01:07:05;;;;;;;21.70;12.38;;;-2.80;88.30;;;;;;5075461;28;20029;-86
2020/12/05 01:09:31;;;;;;;28.73;14.27;;;-2.90;88.00;;;;;;5074504;28;20197;-85
2020/12/05 01:11:57;;;;;;;26.35;13.95;;;-3.00;88.10;;;;;;5074491;28;20025;-86
2020/12/05 01:14:23;;;;;;;21.40;13.90;;;-3.00;88.40;;;;;;5075481;28;20068;-86
2020/12/05 01:16:49;;;;;;;26.70;13.02;;;-2.90;88.50;;;;;;5059277;28;20024;-85
2020/12/05 01:19:15;;;;;;;28.95;14.50;;;-2.90;88.60;;;;;;5076483;28;20044;-86
2020/12/05 01:21:45;;;;;;;22.50;15.32;;;-2.90;88.20;;;;;;5087667;28;20036;-85
2020/12/05 01:24:11;;;;;;;30.92;15.68;;;-2.80;88.20;;;;;;5090284;28;20090;-85
2020/12/05 01:26:37;;;;;;;31.83;13.85;;;-2.80;88.20;;;;;;5085277;28;20055;-84
2020/12/05 01:29:03;;;;;;;31.25;15.00;;;-2.70;88.00;;;;;;5087205;28;20389;-85
2020/12/05 01:31:29;;;;;;;27.00;15.63;;;-2.70;87.50;;;;;;5087169;28;20047;-86
2020/12/05 01:33:54;;;;;;;28.13;14.73;;;-2.80;87.50;;;;;;5053961;28;20438;-84
2020/12/05 01:36:20;;;;;;;25.92;13.00;;;-2.80;87.40;;;;;;5065867;28;20056;-85
2020/12/05 01:38:46;;;;;;;25.48;13.98;;;-2.90;87.50;;;;;;5056722;28;20051;-86
2020/12/05 01:41:12;;;;;;;19.90;11.57;;;-2.90;87.60;;;;;;5055958;28;20477;-85
2020/12/05 01:43:40;;;;;;;27.98;13.60;;;-2.90;87.30;;;;;;5073886;28;20501;-88
2020/12/05 01:46:06;;;;;;;27.75;14.30;;;-3.00;87.50;;;;;;5076507;28;20024;-86
2020/12/05 01:48:33;;;;;;;22.38;13.25;;;-3.10;87.80;;;;;;5078064;28;20051;-85
2020/12/05 01:51:00;;;;;;;26.80;15.07;;;-3.00;87.80;;;;;;5083713;28;20021;-87
2020/12/05 01:53:26;;;;;;;30.48;16.42;;;-3.00;87.80;;;;;;5093899;28;20029;-85
2020/12/05 01:55:52;;;;;;;31.10;18.58;;;-3.00;88.00;;;;;;5081826;28;20363;-86
2020/12/05 01:58:19;;;;;;;34.50;17.98;;;-2.90;87.70;;;;;;5084567;28;20024;-87
2020/12/05 02:00:46;;;;;;;38.28;19.38;;;-2.90;87.50;;;;;;5061541;28;20028;-87
2020/12/05 02:03:16;;;;;;;41.17;21.17;;;-2.80;87.30;;;;;;5057822;28;20041;-85
2020/12/05 02:06:02;;;;;;;35.67;19.30;;;-2.70;86.80;;;;;;5056257;28;20032;-86
2020/12/05 02:08:49;;;;;;;37.05;19.98;;;-2.70;86.40;;;;;;5073997;28;20112;-87
2020/12/05 02:11:21;;;;;;;39.65;19.50;;;-2.90;85.80;;;;;;5074188;28;20021;-86
2020/12/05 02:13:48;;;;;;;40.25;20.98;;;-3.00;86.00;;;;;;5045905;28;20045;-86
2020/12/05 02:16:16;;;;;;;36.92;21.15;;;-3.00;86.20;;;;;;5071912;28;20082;-89
2020/12/05 02:18:46;;;;;;;35.33;19.55;;;-2.90;86.40;;;;;;5073825;28;20116;-85
2020/12/05 02:21:14;;;;;;;42.63;21.52;;;-3.00;85.90;;;;;;5056256;28;20438;-88
2020/12/05 02:23:46;;;;;;;43.25;20.77;;;-2.90;86.00;;;;;;5074126;28;20025;-86
2020/12/05 02:26:13;;;;;;;38.88;19.98;;;-2.90;85.80;;;;;;5074225;28;20107;-87
2020/12/05 02:28:39;;;;;;;41.43;20.83;;;-3.00;85.50;;;;;;5055380;28;20489;-86
2020/12/05 02:31:06;;;;;;;37.15;20.13;;;-3.00;85.30;;;;;;5074178;28;20257;-87
2020/12/05 02:33:32;;;;;;;38.10;20.08;;;-3.10;85.10;;;;;;5066505;28;20025;-84
2020/12/05 02:35:58;;;;;;;37.88;19.17;;;-3.20;85.20;;;;;;5095968;28;20039;-86
2020/12/05 02:38:44;;;;;;;38.85;21.02;;;-3.20;85.50;;;;;;5062446;28;20020;-87
2020/12/05 02:41:10;;;;;;;33.80;18.90;;;-3.20;85.50;;;;;;5064939;28;20074;-85
2020/12/05 02:43:35;;;;;;;42.15;19.65;;;-3.20;85.50;;;;;;5068328;28;20498;-85
2020/12/05 02:46:02;;;;;;;37.50;18.52;;;-3.20;85.20;;;;;;5075834;28;20016;-86
2020/12/05 02:48:27;;;;;;;36.03;19.70;;;-3.20;85.00;;;;;;5073157;28;20402;-85
2020/12/05 02:50:53;;;;;;;30.63;17.98;;;-3.20;84.90;;;;;;5072977;28;20013;-87
2020/12/05 02:53:19;;;;;;;32.55;18.10;;;-3.30;84.50;;;;;;5073586;28;20059;-87
2020/12/05 02:55:45;;;;;;;38.45;18.88;;;-3.30;84.80;;;;;;5081251;28;20039;-85
2020/12/05 02:58:11;;;;;;;35.92;16.65;;;-3.40;84.20;;;;;;5094807;28;20020;-84
2020/12/05 03:00:37;;;;;;;28.23;13.93;;;-3.50;84.30;;;;;;5090667;28;20031;-85
2020/12/05 03:03:03;;;;;;;34.85;17.10;;;-3.60;84.30;;;;;;5074491;28;20025;-86
2020/12/05 03:05:29;;;;;;;28.05;16.98;;;-3.80;84.30;;;;;;5076656;28;20032;-86
2020/12/05 03:07:55;;;;;;;24.37;13.17;;;-3.90;84.50;;;;;;5076551;28;20020;-86
2020/12/05 03:10:21;;;;;;;33.10;15.02;;;-3.90;85.30;;;;;;5076924;28;20100;-86
2020/12/05 03:12:47;;;;;;;30.20;16.20;;;-4.00;84.70;;;;;;5076305;28;20496;-85
2020/12/05 03:15:13;;;;;;;28.60;15.95;;;-4.00;84.70;;;;;;5075998;28;20134;-85
2020/12/05 03:17:38;;;;;;;27.27;14.98;;;-4.00;84.70;;;;;;5055240;28;20025;-87
2020/12/05 03:20:08;;;;;;;29.52;15.77;;;-4.00;84.50;;;;;;5071539;28;20111;-86
2020/12/05 03:22:34;;;;;;;28.35;13.68;;;-4.00;84.40;;;;;;5075922;28;20090;-84
2020/12/05 03:25:01;;;;;;;28.52;14.05;;;-4.00;84.00;;;;;;5076170;28;20016;-85
2020/12/05 03:27:27;;;;;;;33.55;15.95;;;-4.20;83.80;;;;;;5076658;28;20021;-84
2020/12/05 03:29:54;;;;;;;26.33;14.98;;;-4.20;84.20;;;;;;5076575;28;20025;-86
2020/12/05 03:32:24;;;;;;;25.63;16.02;;;-4.30;84.20;;;;;;5076731;28;20017;-85
2020/12/05 03:34:51;;;;;;;27.98;14.45;;;-4.30;83.90;;;;;;5076663;28;20021;-85
2020/12/05 03:37:16;;;;;;;28.60;14.52;;;-4.50;83.90;;;;;;5075577;28;20025;-86
2020/12/05 03:39:42;;;;;;;29.23;14.65;;;-4.50;84.30;;;;;;5075893;28;20555;-84
2020/12/05 03:42:08;;;;;;;23.17;12.95;;;-4.50;84.10;;;;;;5077644;28;20040;-84
2020/12/05 03:44:34;;;;;;;32.10;14.85;;;-4.50;84.00;;;;;;5079509;28;20020;-86
2020/12/05 03:47:00;;;;;;;22.85;12.77;;;-4.50;84.10;;;;;;5077205;28;20166;-86
2020/12/05 03:49:34;;;;;;;23.80;12.77;;;-4.50;84.10;;;;;;5063649;28;20020;-85
2020/12/05 03:52:01;;;;;;;25.73;13.93;;;-4.50;83.70;;;;;;5088482;28;20048;-86
2020/12/05 03:54:27;;;;;;;27.48;15.02;;;-4.50;83.70;;;;;;5084099;28;20016;-83
2020/12/05 03:56:53;;;;;;;26.60;12.75;;;-4.50;83.70;;;;;;5082848;28;20040;-84
2020/12/05 03:59:19;;;;;;;24.38;13.88;;;-4.60;83.70;;;;;;5059013;28;20013;-86
2020/12/05 04:01:47;;;;;;;28.25;14.77;;;-4.70;84.00;;;;;;5075641;28;20056;-85
2020/12/05 04:04:12;;;;;;;21.88;13.15;;;-4.60;84.60;;;;;;5057133;28;20024;-84
2020/12/05 04:06:38;;;;;;;26.08;12.98;;;-4.50;84.70;;;;;;5075144;28;20393;-85
2020/12/05 04:09:04;;;;;;;28.30;16.75;;;-4.50;84.40;;;;;;5057402;28;20032;-84
2020/12/05 04:11:30;;;;;;;27.00;12.90;;;-4.50;84.60;;;;;;5075248;28;20138;-86
2020/12/05 04:13:56;;;;;;;24.25;13.63;;;-4.60;84.50;;;;;;5075696;28;20066;-84
2020/12/05 04:16:22;;;;;;;26.83;13.25;;;-4.60;84.90;;;;;;5074634;28;20095;-86
2020/12/05 04:18:48;;;;;;;27.63;13.73;;;-4.70;85.00;;;;;;5076134;28;20025;-86
2020/12/05 04:21:14;;;;;;;21.88;10.10;;;-4.70;85.40;;;;;;5075436;28;20031;-85
2020/12/05 04:23:40;;;;;;;27.90;12.98;;;-4.70;85.60;;;;;;5053886;28;20112;-86
2020/12/05 04:26:06;;;;;;;29.58;14.18;;;-4.90;86.00;;;;;;5064984;28;20025;-84
2020/12/05 04:28:31;;;;;;;31.00;12.80;;;-4.90;86.50;;;;;;5075003;28;20033;-84
2020/12/05 04:30:57;;;;;;;23.35;14.68;;;-4.80;87.00;;;;;;5085419;28;20009;-85
2020/12/05 04:33:23;;;;;;;26.23;13.23;;;-4.80;87.00;;;;;;5089901;28;20394;-87
2020/12/05 04:35:49;;;;;;;26.42;14.63;;;-4.60;86.90;;;;;;5070552;28;20032;-87
2020/12/05 04:38:15;;;;;;;27.23;13.52;;;-4.50;86.90;;;;;;5075555;28;20478;-86
2020/12/05 04:40:41;;;;;;;27.23;13.57;;;-4.50;86.40;;;;;;5065272;28;20374;-85
2020/12/05 04:43:07;;;;;;;28.05;14.00;;;-4.50;86.20;;;;;;5063722;28;20037;-87
2020/12/05 04:45:33;;;;;;;27.45;13.13;;;-4.50;86.20;;;;;;5064691;28;20028;-85
2020/12/05 04:48:02;;;;;;;28.55;13.00;;;-4.60;85.90;;;;;;5077436;28;20029;-88
2020/12/05 04:50:30;;;;;;;35.08;17.67;;;-4.50;86.10;;;;;;5074381;28;20040;-85
2020/12/05 04:53:12;;;;;;;25.90;12.52;;;-4.50;86.20;;;;;;5060046;28;20441;-86
2020/12/05 04:55:42;;;;;;;26.08;13.98;;;-4.40;85.80;;;;;;5069758;28;20012;-87
2020/12/05 04:58:19;;;;;;;26.88;15.45;;;-4.50;85.70;;;;;;5067320;28;20024;-85
2020/12/05 05:00:46;;;;;;;31.02;13.13;;;-4.50;86.00;;;;;;5056709;28;20481;-85
2020/12/05 05:03:15;;;;;;;25.85;13.38;;;-4.70;85.90;;;;;;5063187;28;20115;-85
2020/12/05 05:05:41;;;;;;;27.33;15.02;;;-4.80;86.20;;;;;;5075148;28;20036;-86
2020/12/05 05:08:07;;;;;;;25.67;12.68;;;-4.70;86.70;;;;;;5079532;28;20024;-85
2020/12/05 05:10:35;;;;;;;23.95;11.10;;;-4.70;86.60;;;;;;5097182;28;20024;-83
2020/12/05 05:15:42;;;;;;;25.40;12.88;;;-4.70;86.60;;;;;;5084351;28;20035;-85
2020/12/05 05:18:08;;;;;;;31.02;15.77;;;-4.70;86.70;;;;;;5057661;28;20047;-84
2020/12/05 05:20:45;;;;;;;30.55;14.80;;;-4.70;86.80;;;;;;5074017;28;20087;-86
2020/12/05 05:23:20;;;;;;;26.63;14.23;;;-4.60;86.90;;;;;;5074905;28;20093;-85
2020/12/05 05:25:53;;;;;;;25.30;13.75;;;-4.60;86.50;;;;;;5082746;28;20024;-85
2020/12/05 05:28:27;;;;;;;37.30;17.25;;;-4.70;86.40;;;;;;5071909;28;20454;-85
2020/12/05 05:30:59;;;;;;;31.83;14.60;;;-4.80;86.60;;;;;;5083596;28;20024;-84
2020/12/05 05:33:25;;;;;;;30.17;15.52;;;-4.70;86.40;;;;;;5087445;28;20032;-86
2020/12/05 05:35:51;;;;;;;34.45;15.32;;;-4.70;86.30;;;;;;5091219;28;20020;-85
2020/12/05 05:38:23;;;;;;;42.08;18.13;;;-4.80;85.80;;;;;;5082752;28;20055;-85
2020/12/05 05:40:50;;;;;;;27.00;14.35;;;-4.80;85.70;;;;;;5078853;28;20014;-86
2020/12/05 05:43:19;;;;;;;36.42;15.82;;;-4.90;85.70;;;;;;5074151;28;20396;-87
2020/12/05 05:45:46;;;;;;;30.63;15.85;;;-4.90;85.60;;;;;;5074835;28;20023;-87
2020/12/05 05:48:13;;;;;;;24.90;12.57;;;-4.90;85.80;;;;;;5062171;28;20031;-86
2020/12/05 05:50:39;;;;;;;26.43;13.87;;;-4.90;85.70;;;;;;5090852;28;20021;-84
2020/12/05 05:53:11;;;;;;;27.73;14.68;;;-4.80;85.50;;;;;;5088930;28;20020;-87
2020/12/05 05:55:42;;;;;;;30.50;16.40;;;-4.80;85.10;;;;;;5079379;28;20035;-85
2020/12/05 05:58:09;;;;;;;35.40;17.67;;;-4.90;84.60;;;;;;5054745;28;20417;-83
2020/12/05 06:00:43;;;;;;;25.42;12.40;;;-4.90;84.60;;;;;;5067737;28;20024;-85
2020/12/05 06:03:23;;;;;;;27.95;14.35;;;-4.90;84.60;;;;;;5075144;28;20032;-86
2020/12/05 06:05:57;;;;;;;26.30;14.77;;;-5.00;84.50;;;;;;5065925;28;20108;-83
2020/12/05 06:08:29;;;;;;;27.02;12.10;;;-5.00;84.50;;;;;;5081215;28;20084;-84
2020/12/05 06:11:09;;;;;;;25.92;12.23;;;-5.00;84.00;;;;;;5075545;28;20474;-87
2020/12/05 06:13:35;;;;;;;20.67;11.40;;;-5.20;83.80;;;;;;5077669;28;20021;-86
2020/12/05 06:16:03;;;;;;;26.02;12.02;;;-5.30;84.00;;;;;;5078433;28;20056;-87
2020/12/05 06:18:29;;;;;;;25.23;13.07;;;-5.40;84.20;;;;;;5056390;28;20020;-85
2020/12/05 06:20:56;;;;;;;29.92;16.45;;;-5.50;84.30;;;;;;5069166;28;20044;-85
2020/12/05 06:23:47;;;;;;;31.13;15.77;;;-5.50;84.30;;;;;;5083678;28;20040;-85
2020/12/05 06:26:23;;;;;;;23.98;13.10;;;-5.50;84.50;;;;;;5073966;28;20021;-85
2020/12/05 06:28:49;;;;;;;25.38;13.05;;;-5.50;84.40;;;;;;5073082;28;20017;-83
2020/12/05 06:31:15;;;;;;;29.95;13.73;;;-5.50;84.20;;;;;;5077551;28;20027;-87
2020/12/05 06:33:48;;;;;;;23.95;13.63;;;-5.50;84.20;;;;;;5074742;28;20021;-88
2020/12/05 06:36:29;;;;;;;22.90;15.00;;;-5.50;84.20;;;;;;5072861;28;20044;-90
2020/12/05 06:39:16;;;;;;;32.28;15.30;;;-5.50;84.20;;;;;;5081307;28;20020;-89
2020/12/05 06:41:48;;;;;;;30.75;15.18;;;-5.50;84.00;;;;;;5079104;28;20107;-86
2020/12/05 06:44:19;;;;;;;27.52;14.63;;;-5.50;84.30;;;;;;5058009;28;20021;-87
2020/12/05 06:46:46;;;;;;;21.60;13.45;;;-5.50;83.60;;;;;;5078874;28;20047;-87
2020/12/05 06:49:32;;;;;;;27.17;14.57;;;-5.60;83.50;;;;;;5079001;28;20354;-87
2020/12/05 06:52:26;;;;;;;32.55;15.70;;;-5.50;83.70;;;;;;5077332;28;20032;-88
2020/12/05 06:55:08;;;;;;;27.10;13.45;;;-5.40;83.50;;;;;;5077661;28;20091;-87
2020/12/05 06:57:35;;;;;;;22.63;13.88;;;-5.50;82.90;;;;;;5069670;28;20108;-87
2020/12/05 07:00:13;;;;;;;21.83;13.07;;;-5.60;82.80;;;;;;5072792;28;20024;-88
2020/12/05 07:02:39;;;;;;;26.17;13.48;;;-5.60;82.90;;;;;;5078689;28;20388;-86
2020/12/05 07:05:22;;;;;;;27.42;13.85;;;-5.60;82.70;;;;;;5083004;28;20070;-87
2020/12/05 07:07:52;;;;;;;26.42;14.57;;;-5.60;82.40;;;;;;5078546;28;20016;-87
2020/12/05 07:10:19;;;;;;;26.33;12.90;;;-5.50;82.70;;;;;;5084631;28;20028;-87
2020/12/05 07:12:45;;;;;;;24.38;12.73;;;-5.50;82.30;;;;;;5077392;28;20020;-88
2020/12/05 07:15:29;;;;;;;21.63;13.32;;;-5.50;82.10;;;;;;5070092;28;20131;-87
2020/12/05 07:17:57;;;;;;;23.85;12.65;;;-5.40;81.90;;;;;;5081543;28;20032;-87
2020/12/05 07:20:23;;;;;;;;;;;-5.40;81.80;;;;;;5078168;28;20049;-87
2020/12/05 07:22:52;;;;;;;25.83;12.80;;;-5.40;81.80;;;;;;5060916;28;20377;-88
2020/12/05 07:25:19;;;;;;;22.70;12.05;;;-5.40;81.30;;;;;;5061043;28;20107;-85
2020/12/05 07:27:48;;;;;;;22.33;12.85;;;-5.40;81.40;;;;;;5080097;28;20028;-87
2020/12/05 07:30:14;;;;;;;28.75;14.70;;;-5.30;81.30;;;;;;5077507;28;20031;-87
2020/12/05 07:32:42;;;;;;;27.52;14.57;;;-5.30;81.20;;;;;;5064346;28;20024;-88
2020/12/05 07:35:15;;;;;;;34.35;16.45;;;-5.20;81.20;;;;;;5059851;28;20024;-88
2020/12/05 07:37:42;;;;;;;29.70;15.65;;;-5.10;81.00;;;;;;5078801;28;20029;-86
2020/12/05 07:40:07;;;;;;;26.70;13.77;;;-5.00;80.80;;;;;;5090798;28;20016;-87
2020/12/05 07:42:38;;;;;;;26.83;15.38;;;-5.00;80.00;;;;;;5092765;28;20040;-87
2020/12/05 07:45:13;;;;;;;24.23;13.15;;;-5.00;80.10;;;;;;5074985;28;20027;-87
2020/12/05 07:47:40;;;;;;;22.42;12.32;;;-5.10;79.60;;;;;;5091077;28;20047;-86
2020/12/05 07:50:08;;;;;;;27.67;14.32;;;-5.00;79.60;;;;;;5084384;28;20021;-88
2020/12/05 07:52:34;;;;;;;23.27;12.43;;;-5.00;79.10;;;;;;5077453;28;20048;-87
2020/12/05 07:55:03;;;;;;;25.63;13.47;;;-4.90;79.40;;;;;;5071113;28;20029;-86
2020/12/05 07:57:34;;;;;;;25.98;13.85;;;-4.60;80.60;;;;;;5077665;28;20021;-86
2020/12/05 08:00:10;;;;;;;28.45;13.70;;;-3.90;80.10;;;;;;5077011;28;20497;-87
2020/12/05 08:03:04;;;;;;;21.30;13.27;;;-3.20;78.90;;;;;;5058199;28;20105;-87
2020/12/05 08:05:48;;;;;;;28.45;13.75;;;-2.60;76.30;;;;;;5058674;28;20112;-89
2020/12/05 08:08:17;;;;;;;23.35;13.45;;;-2.40;74.00;;;;;;5056818;28;20021;-87
2020/12/05 08:10:43;;;;;;;19.90;10.25;;;-2.10;72.30;;;;;;5052445;28;20055;-89
2020/12/05 08:13:26;;;;;;;17.70;9.07;;;-2.10;70.30;;;;;;5081591;28;20043;-87
2020/12/05 08:16:05;;;;;;;22.40;12.18;;;-2.20;69.80;;;;;;5085969;28;20354;-87
2020/12/05 08:18:33;;;;;;;23.65;14.25;;;-2.10;69.90;;;;;;5088466;28;20031;-88
2020/12/05 08:21:03;;;;;;;29.25;14.20;;;-1.80;70.00;;;;;;5097589;28;20040;-87
2020/12/05 08:23:30;;;;;;;20.58;11.85;;;-1.30;69.20;;;;;;5077571;28;20121;-87
2020/12/05 08:26:04;;;;;;;;;;;-1.20;67.40;;;;;;5077048;28;20017;-89
2020/12/05 08:28:35;;;;;;;22.27;12.73;;;-1.00;68.20;;;;;;5059545;28;19918;-87
2020/12/05 08:31:06;;;;;;;24.15;13.32;;;-1.20;65.60;;;;;;5080150;28;20027;-88
2020/12/05 08:33:44;;;;;;;22.55;13.50;;;-1.20;65.00;;;;;;5083194;28;20074;-89
2020/12/05 08:36:17;;;;;;;;;;;-1.10;65.10;;;;;;5076987;28;20099;-89
2020/12/05 08:38:43;;;;;;;18.00;10.65;;;-1.20;65.90;;;;;;5080061;28;19995;-87
2020/12/05 08:41:09;;;;;;;25.10;13.45;;;-1.10;65.60;;;;;;5062677;28;20027;-89
2020/12/05 08:43:35;;;;;;;21.40;11.75;;;-1.30;64.40;;;;;;5078231;28;20039;-88
2020/12/05 08:46:17;;;;;;;23.73;10.20;;;-1.50;64.40;;;;;;5081008;28;20080;-89
2020/12/05 08:48:43;;;;;;;17.77;9.20;;;-1.70;64.80;;;;;;5089070;28;20028;-89
2020/12/05 08:51:09;;;;;;;27.17;12.90;;;-2.00;64.10;;;;;;5068054;28;20047;-89
2020/12/05 08:53:35;;;;;;;21.42;11.80;;;-2.20;65.00;;;;;;5066555;28;20056;-88
2020/12/05 08:56:01;;;;;;;26.70;11.40;;;-2.10;65.70;;;;;;5067985;28;20025;-89
2020/12/05 08:58:43;;;;;;;22.13;12.30;;;-2.10;66.10;;;;;;5090589;28;20048;-87
2020/12/05 09:01:09;;;;;;;21.63;13.02;;;-1.90;65.20;;;;;;5069946;28;20036;-88
2020/12/05 09:03:37;;;;;;;21.60;13.05;;;-1.60;66.20;;;;;;5057833;28;20449;-89
2020/12/05 09:06:04;;;;;;;20.05;12.55;;;-1.20;65.20;;;;;;5082486;28;20068;-88
2020/12/05 09:08:30;;;;;;;22.67;13.38;;;-1.00;64.00;;;;;;5066649;28;20029;-89
2020/12/05 09:10:56;;;;;;;30.08;12.82;;;-0.80;64.10;;;;;;5074143;28;20020;-89
2020/12/05 09:13:23;;;;;;;22.40;12.93;;;-0.70;62.90;;;;;;5069438;28;20021;-90
2020/12/05 09:16:01;;;;;;;23.08;14.10;;;-0.70;62.20;;;;;;5086399;28;20060;-91
2020/12/05 09:18:38;;;;;;;18.60;11.57;;;-0.70;62.50;;;;;;5069907;28;20074;-88
2020/12/05 09:21:20;;;;;;;23.23;13.02;;;-0.60;61.70;;;;;;5084907;28;20387;-88
2020/12/05 09:24:06;;;;;;;22.05;12.27;;;-0.90;61.40;;;;;;5085787;28;20035;-90
2020/12/05 09:26:33;;;;;;;21.67;11.57;;;-0.90;61.90;;;;;;5068430;28;20088;-89
2020/12/05 09:29:01;;;;;;;20.33;11.90;;;-1.20;61.10;;;;;;5078519;28;20028;-88
2020/12/05 09:31:27;;;;;;;23.20;11.90;;;-1.60;61.80;;;;;;5079019;28;20024;-87
2020/12/05 09:33:53;;;;;;;29.02;15.55;;;-2.10;61.80;;;;;;5077411;28;20083;-89
2020/12/05 09:36:19;;;;;;;23.05;12.57;;;-2.40;63.30;;;;;;5070488;28;20017;-89
2020/12/05 09:38:45;;;;;;;25.25;12.90;;;-2.50;64.20;;;;;;5072052;28;20051;-89
2020/12/05 09:41:11;;;;;;;22.70;12.05;;;-2.50;64.90;;;;;;5091565;28;20028;-90
2020/12/05 09:43:37;;;;;;;24.95;12.48;;;-2.40;65.10;;;;;;5090666;28;20052;-90
2020/12/05 09:46:03;;;;;;;23.45;12.82;;;-2.50;64.80;;;;;;5061659;28;20470;-89
2020/12/05 09:48:28;;;;;;;20.98;11.35;;;-2.50;65.00;;;;;;5062504;28;20124;-89
2020/12/05 09:50:54;;;;;;;18.05;10.98;;;-2.60;65.10;;;;;;5066415;28;20112;-90
2020/12/05 09:53:20;;;;;;;23.33;13.48;;;-2.60;65.40;;;;;;5081171;28;20062;-90
2020/12/05 09:55:46;;;;;;;26.48;15.38;;;-2.60;65.40;;;;;;5061071;28;20021;-88
2020/12/05 09:58:12;;;;;;;27.50;11.60;;;-2.30;66.20;;;;;;5078694;28;20095;-89
2020/12/05 10:00:37;;;;;;;22.63;11.23;;;-1.50;66.50;;;;;;5078504;28;20489;-88
2020/12/05 10:03:03;;;;;;;22.83;13.27;;;-0.70;64.80;;;;;;5083309;28;20032;-89
2020/12/05 10:05:29;;;;;;;30.85;12.57;;;0.00;62.20;;;;;;5066814;28;20025;-92
2020/12/05 10:07:57;;;;;;;18.65;12.25;;;0.60;60.30;;;;;;5084387;28;20023;-89
2020/12/05 10:10:23;;;;;;;27.10;14.10;;;1.40;60.10;;;;;;5081398;28;20367;-90
2020/12/05 10:12:48;;;;;;;20.92;13.10;;;2.20;58.30;;;;;;5059946;28;20110;-89
2020/12/05 10:15:15;;;;;;;20.60;12.77;;;2.70;55.30;;;;;;5079955;28;20410;-89
2020/12/05 10:17:45;;;;;;;24.08;13.77;;;3.40;55.00;;;;;;5070492;28;20028;-89
2020/12/05 10:20:11;;;;;;;16.02;10.32;;;3.80;51.40;;;;;;5087919;28;20214;-89
2020/12/05 10:22:37;;;;;;;22.50;13.43;;;3.50;51.20;;;;;;5090149;28;20093;-89
2020/12/05 10:25:04;;;;;;;26.77;15.73;;;2.70;51.40;;;;;;5084812;28;20093;-90
2020/12/05 10:27:30;;;;;;;24.48;13.13;;;2.00;51.90;;;;;;5068350;28;20031;-87
2020/12/05 10:29:57;;;;;;;26.00;13.48;;;1.40;53.20;;;;;;5065794;28;20047;-90
2020/12/05 10:32:23;;;;;;;20.60;11.98;;;0.80;54.30;;;;;;5082313;28;20470;-89
2020/12/05 10:34:55;;;;;;;23.20;11.30;;;0.30;54.30;;;;;;5072746;28;20039;-88
2020/12/05 10:37:22;;;;;;;24.27;13.65;;;0.00;55.10;;;;;;5078940;28;20462;-88
2020/12/05 10:39:48;;;;;;;20.80;11.45;;;-0.50;55.80;;;;;;5062172;28;20108;-89
2020/12/05 10:42:13;;;;;;;24.40;13.32;;;-0.70;56.60;;;;;;5076127;28;20086;-87
2020/12/05 10:44:39;;;;;;;23.27;11.48;;;-0.90;57.30;;;;;;5085058;28;20393;-86
2020/12/05 10:47:05;;;;;;;18.67;11.68;;;-1.00;57.60;;;;;;5095650;28;20013;-87
2020/12/05 10:49:31;;;;;;;22.77;13.70;;;-1.10;57.80;;;;;;5084247;28;20029;-88
2020/12/05 10:51:57;;;;;;;16.48;10.90;;;-1.30;58.20;;;;;;5080173;28;20115;-90
2020/12/05 10:54:24;;;;;;;21.08;13.32;;;-1.30;58.40;;;;;;5069126;28;20088;-89
2020/12/05 10:56:50;;;;;;;24.20;12.45;;;-1.40;58.80;;;;;;5067365;28;20051;-89
2020/12/05 10:59:16;;;;;;;23.30;13.60;;;-1.40;58.90;;;;;;5069246;28;20024;-90
2020/12/05 11:01:42;;;;;;;18.20;11.43;;;-1.50;59.00;;;;;;5081719;28;20027;-88
2020/12/05 11:04:08;;;;;;;22.50;12.27;;;-1.50;59.20;;;;;;5075655;28;20055;-90
2020/12/05 11:06:34;;;;;;;22.10;11.80;;;-1.60;58.90;;;;;;5079114;28;20028;-87
2020/12/05 11:09:00;;;;;;;26.80;13.50;;;-1.70;59.20;;;;;;5079407;28;20093;-87
2020/12/05 11:11:26;;;;;;;27.73;13.05;;;-1.70;59.40;;;;;;5091978;28;20024;-91
2020/12/05 11:13:51;;;;;;;18.55;11.18;;;-1.80;59.20;;;;;;5086509;28;20043;-87
2020/12/05 11:16:19;;;;;;;18.48;10.50;;;-1.80;59.20;;;;;;5086297;28;20068;-90
2020/12/05 11:18:45;;;;;;;24.40;11.80;;;-1.90;59.10;;;;;;5094967;28;20047;-88
2020/12/05 11:21:11;;;;;;;17.17;9.97;;;-1.90;59.30;;;;;;5072789;28;20074;-88
2020/12/05 11:23:37;;;;;;;18.08;11.55;;;-1.90;59.10;;;;;;5078899;28;20028;-89
2020/12/05 11:26:03;;;;;;;25.58;13.68;;;-1.90;59.30;;;;;;5077636;28;20052;-87
2020/12/05 11:28:30;;;;;;;23.88;12.13;;;-1.80;59.70;;;;;;5060174;28;20551;-86
2020/12/05 11:30:56;;;;;;;21.55;11.80;;;-1.80;59.00;;;;;;5081980;28;20401;-89
2020/12/05 11:33:22;;;;;;;23.63;11.30;;;-1.80;59.20;;;;;;5083566;28;20020;-88
2020/12/05 11:35:48;;;;;;;20.60;12.27;;;-1.80;59.20;;;;;;5065254;28;20020;-88
2020/12/05 11:38:13;;;;;;;23.02;11.27;;;-1.90;58.70;;;;;;5091818;28;20107;-87
2020/12/05 11:40:39;;;;;;;23.75;12.23;;;-1.80;59.20;;;;;;5078416;28;20441;-89
2020/12/05 11:43:05;;;;;;;22.88;10.65;;;-1.90;58.10;;;;;;5085924;28;20039;-88
2020/12/05 11:45:31;;;;;;;23.75;12.25;;;-1.90;59.20;;;;;;5062879;28;20040;-89
2020/12/05 11:47:57;;;;;;;27.70;12.35;;;-1.90;58.50;;;;;;5060656;28;20021;-88
2020/12/05 11:50:22;;;;;;;16.73;10.05;;;-1.90;58.50;;;;;;5079359;28;20020;-88
2020/12/05 11:52:48;;;;;;;25.05;12.02;;;-1.90;58.60;;;;;;5083494;28;20033;-89
2020/12/05 11:55:14;;;;;;;22.15;11.75;;;-1.90;59.00;;;;;;5085877;28;20099;-86
2020/12/05 11:57:40;;;;;;;19.55;11.75;;;-1.90;59.10;;;;;;5078912;28;20080;-87
2020/12/05 12:00:06;;;;;;;24.38;12.52;;;-1.90;58.80;;;;;;5089254;28;20023;-88
2020/12/05 12:02:32;;;;;;;22.65;12.15;;;-1.90;58.70;;;;;;5067345;28;20037;-88
2020/12/05 12:04:58;;;;;;;22.50;10.30;;;-2.00;58.80;;;;;;5081867;28;20031;-89
2020/12/05 12:07:24;;;;;;;26.83;13.23;;;-2.00;58.60;;;;;;5081631;28;20028;-87
2020/12/05 12:09:50;;;;;;;23.40;12.43;;;-2.00;58.70;;;;;;5018485;28;20579;-88
2020/12/05 12:12:17;;;;;;;21.98;12.13;;;-2.00;58.70;;;;;;5021054;28;20071;-88
2020/12/05 12:14:43;;;;;;;28.23;12.00;;;-2.00;58.60;;;;;;5019048;28;20047;-85
2020/12/05 12:17:09;;;;;;;24.35;10.48;;;-2.00;58.90;;;;;;5020772;28;20052;-87
2020/12/05 12:19:35;;;;;;;17.08;9.90;;;-2.00;58.20;;;;;;4998939;28;20052;-88
2020/12/05 12:22:01;;;;;;;20.92;9.68;;;-2.10;57.50;;;;;;5011527;28;20046;-87
2020/12/05 12:24:27;;;;;;;20.63;9.70;;;-2.10;57.70;;;;;;5016392;28;20014;-89
2020/12/05 12:26:53;;;;;;;20.08;10.52;;;-2.10;57.70;;;;;;5027812;28;20112;-87
2020/12/05 12:29:18;;;;;;;17.92;9.43;;;-2.10;57.60;;;;;;4998870;28;20105;-88
2020/12/05 12:31:45;;;;;;;16.23;9.23;;;-2.10;57.70;;;;;;5016156;28;20045;-87
2020/12/05 12:34:11;;;;;;;20.02;10.82;;;-2.10;57.90;;;;;;5017920;28;20153;-88
2020/12/05 12:36:37;;;;;;;17.58;9.73;;;-2.20;58.40;;;;;;5001032;28;20137;-86